createdAt,value
2019-01-20T00:00:27.131Z,40.63
2019-01-20T00:03:00.783Z,39.95
2019-01-20T00:05:32.968Z,40.63
2019-01-20T00:08:06.345Z,40.63
2019-01-20T00:10:37.214Z,39.94
2019-01-20T00:13:08.999Z,39.67
2019-01-20T00:15:42.151Z,39.23
2019-01-20T00:18:15.364Z,38.89
2019-01-20T00:20:47.518Z,38.60
2019-01-20T00:23:22.112Z,38.45
2019-01-20T00:25:53.838Z,38.60
2019-01-20T00:28:25.773Z,38.83
2019-01-20T00:30:58.411Z,38.60
2019-01-20T00:33:31.584Z,38.13
2019-01-20T00:36:03.053Z,39.09
2019-01-20T00:38:35.241Z,39.22
2019-01-20T00:41:06.690Z,40.75
2019-01-20T00:43:48.782Z,39.56
2019-01-20T00:46:20.846Z,39.13
2019-01-20T00:48:55.274Z,39.69
2019-01-20T00:51:33.599Z,39.07
2019-01-20T00:54:08.900Z,38.69
2019-01-20T00:56:39.868Z,38.44
2019-01-20T00:59:11.767Z,38.46
2019-01-20T01:01:42.951Z,38.25
2019-01-20T01:04:18.141Z,38.37
2019-01-20T01:06:50.301Z,38.14
2019-01-20T01:09:22.453Z,39.01
2019-01-20T01:11:54.741Z,38.92
2019-01-20T01:14:27.048Z,38.61
2019-01-20T01:17:00.037Z,38.37
2019-01-20T01:19:32.198Z,38.39
2019-01-20T01:22:02.933Z,38.29
2019-01-20T01:24:35.792Z,38.48
2019-01-20T01:27:07.244Z,39.85
2019-01-20T01:29:40.850Z,39.76
2019-01-20T01:32:11.889Z,39.86
2019-01-20T01:34:44.127Z,40.09
2019-01-20T01:37:15.277Z,40.84
2019-01-20T01:39:50.518Z,39.94
2019-01-20T01:42:28.539Z,39.91
2019-01-20T01:45:00.926Z,39.50
2019-01-20T01:47:31.561Z,39.83
2019-01-20T01:50:05.249Z,41.28
2019-01-20T01:52:39.917Z,39.97
2019-01-20T01:55:12.509Z,39.45
2019-01-20T01:57:45.734Z,39.50
2019-01-20T02:00:22.551Z,40.48
2019-01-20T02:02:56.727Z,40.99
2019-01-20T02:05:30.047Z,39.85
2019-01-20T02:08:01.805Z,39.53
2019-01-20T02:10:33.867Z,39.02
2019-01-20T02:13:04.944Z,40.47
2019-01-20T02:15:37.257Z,41.52
2019-01-20T02:18:09.058Z,41.44
2019-01-20T02:20:40.266Z,40.94
2019-01-20T02:23:11.516Z,40.16
2019-01-20T02:25:42.990Z,41.65
2019-01-20T02:28:13.624Z,41.76
2019-01-20T02:30:46.025Z,40.51
2019-01-20T02:33:18.780Z,40.79
2019-01-20T02:35:51.785Z,40.89
2019-01-20T02:38:22.649Z,40.79
2019-01-20T02:40:54.285Z,40.27
2019-01-20T02:43:25.000Z,40.55
2019-01-20T02:45:56.064Z,40.92
2019-01-20T02:48:26.430Z,39.77
2019-01-20T02:50:58.649Z,40.71
2019-01-20T02:53:29.670Z,39.58
2019-01-20T02:56:01.121Z,39.57
2019-01-20T02:58:34.076Z,39.21
2019-01-20T03:01:08.632Z,39.40
2019-01-20T03:03:40.049Z,38.74
2019-01-20T03:06:12.306Z,38.32
2019-01-20T03:08:43.903Z,38.08
2019-01-20T03:11:16.711Z,38.84
2019-01-20T03:13:48.385Z,38.44
2019-01-20T03:16:21.851Z,39.35
2019-01-20T03:18:54.428Z,39.54
2019-01-20T03:21:27.086Z,38.87
2019-01-20T03:24:00.134Z,40.35
2019-01-20T03:26:31.296Z,39.85
2019-01-20T03:29:06.241Z,39.93
2019-01-20T03:31:38.179Z,38.75
2019-01-20T03:34:09.863Z,38.64
2019-01-20T03:36:43.813Z,38.59
2019-01-20T03:39:15.115Z,38.27
2019-01-20T03:41:48.657Z,38.46
2019-01-20T03:44:21.875Z,38.33
2019-01-20T03:46:53.588Z,38.16
2019-01-20T03:49:24.496Z,38.00
2019-01-20T03:51:58.517Z,38.19
2019-01-20T03:54:31.477Z,38.30
2019-01-20T03:57:03.500Z,39.05
2019-01-20T03:59:34.759Z,38.86
2019-01-20T04:02:06.552Z,38.40
2019-01-20T04:04:38.719Z,38.91
2019-01-20T04:07:11.295Z,38.64
2019-01-20T04:09:45.216Z,39.31
2019-01-20T04:12:20.742Z,40.59
2019-01-20T04:14:49.769Z,39.95
2019-01-20T04:17:29.005Z,39.30
2019-01-20T04:20:10.577Z,39.63
2019-01-20T04:22:44.465Z,39.34
2019-01-20T04:25:18.412Z,38.89
2019-01-20T04:27:49.905Z,39.28
2019-01-20T04:30:20.887Z,39.71
2019-01-20T04:32:52.831Z,38.95
2019-01-20T04:35:23.097Z,39.22
2019-01-20T04:37:55.091Z,40.50
2019-01-20T04:40:29.054Z,40.05
2019-01-20T04:43:00.694Z,40.16
2019-01-20T04:45:31.363Z,39.41
2019-01-20T04:48:01.752Z,39.04
2019-01-20T04:50:33.001Z,38.97
2019-01-20T04:53:05.101Z,39.00
2019-01-20T04:55:36.659Z,38.99
2019-01-20T04:58:08.109Z,38.82
2019-01-20T05:00:39.749Z,38.69
2019-01-20T05:03:13.765Z,38.72
2019-01-20T05:05:50.171Z,38.20
2019-01-20T05:08:24.064Z,38.79
2019-01-20T05:10:55.478Z,40.06
2019-01-20T05:13:27.687Z,40.05
2019-01-20T05:16:00.805Z,39.12
2019-01-20T05:18:31.573Z,38.62
2019-01-20T05:21:07.161Z,38.59
2019-01-20T05:23:40.700Z,38.34
2019-01-20T05:26:14.163Z,38.76
2019-01-20T05:28:47.008Z,39.63
2019-01-20T05:31:19.418Z,38.84
2019-01-20T05:33:51.916Z,38.50
2019-01-20T05:36:25.630Z,38.51
2019-01-20T05:38:58.042Z,38.87
2019-01-20T05:41:30.590Z,38.82
2019-01-20T05:44:02.580Z,39.01
2019-01-20T05:46:33.666Z,38.67
2019-01-20T05:49:05.176Z,38.34
2019-01-20T05:51:36.095Z,38.19
2019-01-20T05:54:10.270Z,38.66
2019-01-20T05:56:43.833Z,39.48
2019-01-20T05:59:17.991Z,39.16
2019-01-20T06:01:50.511Z,39.31
2019-01-20T06:04:22.563Z,39.79
2019-01-20T06:06:53.810Z,40.47
2019-01-20T06:09:26.444Z,41.15
2019-01-20T06:11:59.380Z,40.75
2019-01-20T06:14:31.149Z,40.66
2019-01-20T06:17:02.147Z,39.80
2019-01-20T06:19:32.872Z,40.33
2019-01-20T06:22:05.120Z,39.57
2019-01-20T06:24:38.253Z,40.05
2019-01-20T06:27:09.554Z,39.90
2019-01-20T06:29:41.031Z,40.62
2019-01-20T06:32:12.255Z,41.11
2019-01-20T06:34:45.676Z,40.07
2019-01-20T06:37:20.119Z,41.05
2019-01-20T06:39:53.751Z,39.89
2019-01-20T06:42:25.274Z,39.67
2019-01-20T06:44:56.540Z,39.33
2019-01-20T06:47:27.562Z,39.06
2019-01-20T06:49:58.952Z,39.00
2019-01-20T06:52:30.266Z,39.68
2019-01-20T06:55:04.896Z,39.72
2019-01-20T06:57:37.476Z,38.98
2019-01-20T07:00:12.710Z,38.50
2019-01-20T07:02:43.076Z,38.57
2019-01-20T07:05:14.821Z,38.58
2019-01-20T07:07:46.742Z,38.37
2019-01-20T07:10:21.489Z,38.27
2019-01-20T07:12:55.185Z,38.54
2019-01-20T07:15:29.538Z,38.16
2019-01-20T07:18:03.669Z,38.13
2019-01-20T07:20:35.118Z,38.22
2019-01-20T07:23:08.666Z,37.96
2019-01-20T07:25:45.567Z,38.10
2019-01-20T07:28:18.845Z,38.03
2019-01-20T07:30:50.560Z,38.11
2019-01-20T07:33:22.699Z,37.97
2019-01-20T07:35:57.731Z,38.79
2019-01-20T07:38:29.977Z,38.63
2019-01-20T07:41:01.551Z,38.43
2019-01-20T07:43:34.537Z,38.48
2019-01-20T07:46:05.955Z,38.82
2019-01-20T07:48:38.529Z,38.76
2019-01-20T07:51:09.619Z,38.95
2019-01-20T07:53:41.435Z,38.66
2019-01-20T07:56:16.322Z,38.59
2019-01-20T07:58:52.387Z,38.54
2019-01-20T08:01:24.989Z,38.65
2019-01-20T08:03:56.666Z,39.04
2019-01-20T08:06:28.575Z,38.81
2019-01-20T08:08:59.878Z,38.75
2019-01-20T08:11:33.245Z,38.47
2019-01-20T08:14:05.450Z,38.73
2019-01-20T08:16:37.241Z,38.37
2019-01-20T08:19:08.904Z,38.79
2019-01-20T08:21:41.626Z,38.22
2019-01-20T08:24:15.082Z,38.15
2019-01-20T08:26:46.228Z,37.94
2019-01-20T08:29:17.983Z,37.88
2019-01-20T08:31:49.579Z,37.78
2019-01-20T08:34:22.017Z,37.49
2019-01-20T08:36:53.841Z,37.24
2019-01-20T08:39:24.818Z,37.41
2019-01-20T08:41:58.862Z,37.91
2019-01-20T08:44:36.514Z,38.80
2019-01-20T08:47:44.950Z,37.94
2019-01-20T08:50:19.737Z,37.58
2019-01-20T08:52:52.176Z,37.81
2019-01-20T08:55:24.955Z,37.67
2019-01-20T08:57:59.144Z,37.39
2019-01-20T09:00:30.432Z,37.53
2019-01-20T09:03:04.086Z,37.60
2019-01-20T09:05:40.031Z,37.29
2019-01-20T09:08:12.556Z,37.03
2019-01-20T09:10:48.847Z,36.92
2019-01-20T09:13:21.584Z,36.74
2019-01-20T09:15:53.116Z,36.48
2019-01-20T09:18:25.216Z,37.12
2019-01-20T09:20:55.889Z,37.73
2019-01-20T09:23:27.711Z,37.52
2019-01-20T09:26:02.093Z,37.33
2019-01-20T09:28:33.896Z,36.86
2019-01-20T09:31:07.801Z,35.98
2019-01-20T09:33:40.588Z,35.79
2019-01-20T09:36:14.496Z,36.41
2019-01-20T09:38:49.829Z,35.65
2019-01-20T09:41:21.843Z,34.86
2019-01-20T09:44:32.715Z,34.81
2019-01-20T09:47:04.544Z,34.43
2019-01-20T09:49:40.971Z,33.87
2019-01-20T09:52:14.352Z,34.11
2019-01-20T09:54:44.759Z,33.64
2019-01-20T09:57:16.869Z,34.23
2019-01-20T09:59:48.008Z,34.63
2019-01-20T10:02:18.591Z,34.81
2019-01-20T10:04:50.491Z,35.01
2019-01-20T10:07:25.446Z,35.21
2019-01-20T10:09:55.770Z,34.50
2019-01-20T10:12:26.661Z,33.76
2019-01-20T10:14:59.409Z,33.27
2019-01-20T10:17:31.191Z,33.85
2019-01-20T10:20:03.092Z,33.47
2019-01-20T10:22:34.500Z,33.36
2019-01-20T10:25:06.939Z,33.54
2019-01-20T10:27:39.716Z,33.24
2019-01-20T10:30:18.700Z,32.81
2019-01-20T10:32:50.923Z,32.80
2019-01-20T10:35:28.586Z,33.54
2019-01-20T10:38:01.918Z,33.17
2019-01-20T10:40:36.114Z,32.75
2019-01-20T10:43:10.058Z,33.30
2019-01-20T10:45:41.654Z,33.28
2019-01-20T10:48:15.154Z,33.78
2019-01-20T10:50:45.898Z,33.36
2019-01-20T10:53:20.438Z,32.84
2019-01-20T10:55:51.292Z,32.05
2019-01-20T10:58:30.876Z,31.81
2019-01-20T11:01:01.860Z,31.58
2019-01-20T11:03:34.158Z,31.42
2019-01-20T11:06:08.443Z,29.28
2019-01-20T11:08:40.068Z,27.55
2019-01-20T11:11:15.253Z,26.11
2019-01-20T11:13:54.884Z,24.47
2019-01-20T11:16:28.316Z,23.61
2019-01-20T11:18:59.276Z,23.09
2019-01-20T11:21:30.642Z,21.98
2019-01-20T11:24:01.285Z,21.44
2019-01-20T11:26:32.259Z,21.34
2019-01-20T11:29:04.416Z,20.51
2019-01-20T11:31:35.540Z,20.86
2019-01-20T11:34:08.528Z,21.19
2019-01-20T11:36:39.604Z,21.81
2019-01-20T11:39:11.328Z,23.07
2019-01-20T11:41:44.341Z,24.20
2019-01-20T11:44:16.990Z,24.95
2019-01-20T11:46:51.332Z,25.87
2019-01-20T11:49:24.662Z,26.67
2019-01-20T11:51:56.098Z,27.30
2019-01-20T11:54:28.430Z,27.72
2019-01-20T11:57:01.199Z,28.60
2019-01-20T11:59:34.406Z,28.84
2019-01-20T12:02:06.167Z,29.19
2019-01-20T12:04:37.618Z,29.78
2019-01-20T12:07:10.310Z,30.43
2019-01-20T12:09:43.201Z,30.21
2019-01-20T12:12:16.542Z,30.44
2019-01-20T12:14:48.695Z,30.82
2019-01-20T12:17:21.562Z,31.04
2019-01-20T12:19:54.366Z,30.91
2019-01-20T12:22:27.514Z,30.90
2019-01-20T12:24:59.069Z,31.19
2019-01-20T12:27:30.932Z,30.88
2019-01-20T12:30:04.230Z,29.47
2019-01-20T12:32:37.999Z,27.50
2019-01-20T12:35:08.960Z,26.71
2019-01-20T12:37:40.947Z,25.46
2019-01-20T12:40:21.693Z,23.89
2019-01-20T12:43:00.019Z,23.67
2019-01-20T12:45:33.655Z,23.15
2019-01-20T12:48:12.299Z,23.55
2019-01-20T12:50:46.160Z,23.37
2019-01-20T12:53:18.021Z,23.72
2019-01-20T12:55:49.101Z,23.35
2019-01-20T12:58:22.776Z,22.81
2019-01-20T13:00:56.149Z,23.05
2019-01-20T13:03:34.379Z,23.84
2019-01-20T13:06:05.810Z,23.93
2019-01-20T13:08:37.348Z,23.87
2019-01-20T13:11:08.617Z,23.77
2019-01-20T13:13:39.267Z,22.87
2019-01-20T13:16:09.656Z,23.08
2019-01-20T13:18:42.330Z,24.08
2019-01-20T13:21:12.686Z,25.44
2019-01-20T13:23:45.607Z,25.45
2019-01-20T13:26:15.908Z,26.57
2019-01-20T13:28:47.374Z,27.24
2019-01-20T13:31:18.920Z,28.87
2019-01-20T13:33:53.655Z,28.20
2019-01-20T13:36:25.670Z,28.71
2019-01-20T13:38:58.208Z,29.19
2019-01-20T13:41:35.475Z,28.94
2019-01-20T13:44:07.239Z,29.03
2019-01-20T13:46:38.791Z,29.84
2019-01-20T13:49:11.472Z,30.37
2019-01-20T13:51:45.573Z,30.91
2019-01-20T13:54:17.146Z,30.59
2019-01-20T13:56:48.867Z,30.48
2019-01-20T13:59:20.114Z,31.09
2019-01-20T14:01:50.441Z,30.65
2019-01-20T14:04:23.118Z,31.93
2019-01-20T14:06:55.430Z,31.37
2019-01-20T14:09:31.409Z,31.34
2019-01-20T14:12:04.399Z,31.48
2019-01-20T14:14:35.475Z,30.89
2019-01-20T14:17:07.752Z,30.77
2019-01-20T14:19:41.340Z,30.44
2019-01-20T14:22:13.172Z,30.96
2019-01-20T14:24:44.565Z,30.42
2019-01-20T14:27:16.425Z,30.95
2019-01-20T14:29:48.029Z,30.71
2019-01-20T14:32:20.191Z,31.14
2019-01-20T14:34:54.514Z,30.93
2019-01-20T14:37:28.013Z,31.63
2019-01-20T14:40:00.781Z,32.33
2019-01-20T14:42:35.447Z,31.79
2019-01-20T14:45:09.560Z,31.24
2019-01-20T14:47:45.326Z,30.94
2019-01-20T14:50:20.434Z,30.83
2019-01-20T14:52:54.510Z,31.77
2019-01-20T14:55:33.503Z,32.10
2019-01-20T14:58:05.848Z,31.53
2019-01-20T15:00:39.921Z,31.29
2019-01-20T15:03:12.423Z,31.90
2019-01-20T15:05:46.022Z,31.36
2019-01-20T15:08:20.624Z,31.50
2019-01-20T15:10:52.368Z,31.26
2019-01-20T15:13:37.581Z,31.85
2019-01-20T15:16:10.704Z,31.57
2019-01-20T15:18:51.488Z,31.19
2019-01-20T15:21:26.729Z,31.13
2019-01-20T15:24:00.861Z,31.05
2019-01-20T15:26:33.628Z,31.16
2019-01-20T15:29:04.652Z,31.33
2019-01-20T15:31:35.770Z,31.29
2019-01-20T15:34:08.839Z,31.41
2019-01-20T15:36:41.545Z,31.60
2019-01-20T15:39:14.461Z,31.25
2019-01-20T15:41:45.697Z,31.05
2019-01-20T15:44:17.439Z,30.88
2019-01-20T15:46:49.832Z,31.13
2019-01-20T15:49:21.176Z,31.04
2019-01-20T15:51:54.542Z,31.02
2019-01-20T15:54:26.324Z,31.11
2019-01-20T15:56:58.043Z,31.29
2019-01-20T15:59:29.794Z,31.13
2019-01-20T16:02:02.157Z,31.37
2019-01-20T16:04:33.916Z,31.22
2019-01-20T16:07:09.453Z,31.11
2019-01-20T16:09:40.230Z,31.69
2019-01-20T16:12:12.354Z,32.04
2019-01-20T16:14:43.996Z,32.15
2019-01-20T16:17:15.868Z,32.30
2019-01-20T16:19:48.102Z,32.08
2019-01-20T16:22:21.373Z,32.32
2019-01-20T16:24:53.128Z,32.65
2019-01-20T16:27:28.953Z,32.77
2019-01-20T16:30:02.449Z,32.77
2019-01-20T16:32:34.097Z,33.05
2019-01-20T16:35:06.891Z,32.91
2019-01-20T16:37:40.055Z,33.09
2019-01-20T16:40:14.289Z,33.12
2019-01-20T16:42:45.728Z,33.32
2019-01-20T16:45:23.370Z,33.53
2019-01-20T16:47:55.489Z,33.68
2019-01-20T16:50:29.400Z,33.75
2019-01-20T16:53:04.828Z,34.02
2019-01-20T16:55:36.531Z,33.99
2019-01-20T16:58:07.883Z,34.00
2019-01-20T17:00:42.715Z,34.14
2019-01-20T17:03:15.968Z,34.26
2019-01-20T17:05:46.279Z,34.37
2019-01-20T17:08:19.091Z,34.45
2019-01-20T17:10:51.341Z,34.42
2019-01-20T17:13:24.796Z,34.63
2019-01-20T17:15:56.743Z,34.72
2019-01-20T17:18:29.852Z,34.74
2019-01-20T17:21:02.962Z,34.75
2019-01-20T17:23:34.539Z,34.86
2019-01-20T17:26:08.205Z,34.92
2019-01-20T17:28:41.484Z,34.92
2019-01-20T17:31:13.257Z,34.76
2019-01-20T17:33:46.928Z,35.05
2019-01-20T17:36:20.649Z,35.17
2019-01-20T17:38:53.332Z,35.34
2019-01-20T17:41:25.500Z,35.31
2019-01-20T17:43:56.985Z,35.47
2019-01-20T17:46:29.496Z,35.69
2019-01-20T17:49:01.301Z,35.79
2019-01-20T17:51:39.299Z,35.85
2019-01-20T17:54:11.882Z,35.76
2019-01-20T17:56:45.583Z,35.48
2019-01-20T17:59:17.959Z,35.70
2019-01-20T18:01:50.240Z,35.76
2019-01-20T18:04:21.355Z,35.77
2019-01-20T18:06:53.860Z,35.58
2019-01-20T18:09:27.673Z,35.51
2019-01-20T18:11:59.178Z,35.74
2019-01-20T18:14:30.442Z,35.95
2019-01-20T18:17:02.235Z,35.71
2019-01-20T18:19:32.986Z,35.78
2019-01-20T18:22:09.318Z,35.84
2019-01-20T18:24:52.260Z,35.85
2019-01-20T18:27:27.325Z,35.46
2019-01-20T18:29:59.044Z,35.60
2019-01-20T18:32:31.377Z,35.73
2019-01-20T18:35:03.518Z,35.78
2019-01-20T18:37:37.149Z,35.71
2019-01-20T18:40:13.416Z,35.79
2019-01-20T18:42:45.531Z,35.63
2019-01-20T18:45:20.966Z,35.60
2019-01-20T18:47:52.926Z,35.62
2019-01-20T18:50:28.850Z,35.86
2019-01-20T18:53:02.697Z,35.94
2019-01-20T18:55:35.318Z,36.02
2019-01-20T18:58:08.874Z,36.00
2019-01-20T19:00:45.985Z,36.22
2019-01-20T19:03:20.496Z,36.34
2019-01-20T19:06:03.100Z,36.26
2019-01-20T19:08:33.963Z,36.32
2019-01-20T19:11:08.834Z,36.53
2019-01-20T19:13:41.161Z,36.54
2019-01-20T19:16:14.903Z,36.74
2019-01-20T19:18:46.901Z,36.69
2019-01-20T19:21:17.876Z,36.50
2019-01-20T19:23:51.037Z,36.42
2019-01-20T19:26:24.761Z,36.52
2019-01-20T19:29:02.808Z,36.67
2019-01-20T19:31:29.562Z,36.77
2019-01-20T19:34:02.492Z,36.85
2019-01-20T19:36:38.023Z,37.07
2019-01-20T19:39:11.537Z,37.28
2019-01-20T19:41:43.737Z,37.48
2019-01-20T19:44:16.704Z,37.73
2019-01-20T19:46:52.693Z,37.93
2019-01-20T19:49:23.683Z,37.97
2019-01-20T19:51:55.990Z,38.21
2019-01-20T19:54:29.355Z,38.41
2019-01-20T19:57:06.389Z,38.36
2019-01-20T19:59:38.402Z,38.53
2019-01-20T20:02:10.279Z,38.62
2019-01-20T20:04:42.307Z,38.73
2019-01-20T20:07:14.172Z,38.80
2019-01-20T20:09:45.964Z,38.94
2019-01-20T20:12:18.863Z,39.02
2019-01-20T20:14:53.253Z,39.21
2019-01-20T20:17:23.943Z,39.39
2019-01-20T20:19:54.660Z,39.19
2019-01-20T20:22:26.408Z,39.28
2019-01-20T20:24:57.555Z,39.37
2019-01-20T20:27:30.313Z,39.38
2019-01-20T20:30:02.586Z,39.34
2019-01-20T20:32:34.677Z,39.35
2019-01-20T20:35:07.391Z,39.54
2019-01-20T20:37:39.626Z,39.45
2019-01-20T20:40:15.846Z,39.33
2019-01-20T20:42:50.169Z,39.27
2019-01-20T20:45:26.205Z,39.26
2019-01-20T20:48:03.230Z,39.28
2019-01-20T20:50:34.634Z,39.49
2019-01-20T20:53:07.402Z,39.55
2019-01-20T20:55:43.661Z,39.63
2019-01-20T20:58:29.006Z,39.58
2019-01-20T21:01:04.431Z,39.81
2019-01-20T21:03:40.105Z,39.95
2019-01-20T21:06:10.855Z,40.05
2019-01-20T21:08:41.675Z,40.19
2019-01-20T21:11:13.042Z,40.27
2019-01-20T21:13:44.667Z,40.30
2019-01-20T21:16:17.397Z,40.54
2019-01-20T21:18:49.537Z,40.92
2019-01-20T21:21:20.790Z,40.79
2019-01-20T21:23:52.654Z,41.35
2019-01-20T21:26:26.246Z,42.00
2019-01-20T21:28:57.982Z,41.62
2019-01-20T21:31:28.621Z,41.60
2019-01-20T21:33:59.876Z,41.54
2019-01-20T21:36:33.076Z,41.28
2019-01-20T21:39:04.018Z,41.60
2019-01-20T21:41:39.140Z,41.75
2019-01-20T21:44:12.064Z,41.49
2019-01-20T21:46:45.544Z,41.42
2019-01-20T21:49:17.309Z,41.43
2019-01-20T21:51:49.092Z,41.36
2019-01-20T21:54:21.477Z,42.48
2019-01-20T21:56:53.656Z,42.54
2019-01-20T21:59:26.918Z,42.57
2019-01-20T22:01:58.707Z,42.93
2019-01-20T22:04:32.570Z,42.88
2019-01-20T22:07:05.333Z,42.84
2019-01-20T22:09:39.410Z,43.31
2019-01-20T22:12:12.177Z,43.16
2019-01-20T22:14:44.908Z,42.55
2019-01-20T22:17:17.128Z,42.18
2019-01-20T22:19:48.783Z,42.35
2019-01-20T22:22:21.357Z,43.52
2019-01-20T22:24:52.871Z,42.31
2019-01-20T22:27:25.795Z,42.29
2019-01-20T22:29:58.199Z,42.54
2019-01-20T22:32:29.746Z,42.37
2019-01-20T22:35:02.119Z,42.44
2019-01-20T22:37:34.337Z,42.34
2019-01-20T22:40:08.390Z,42.21
2019-01-20T22:42:41.278Z,42.31
2019-01-20T22:45:16.134Z,42.97
2019-01-20T22:47:49.307Z,42.53
2019-01-20T22:50:21.876Z,42.29
2019-01-20T22:52:56.350Z,42.37
2019-01-20T22:55:30.314Z,42.68
2019-01-20T22:58:03.304Z,42.94
2019-01-20T23:00:53.100Z,42.74
2019-01-20T23:03:25.051Z,43.16
2019-01-20T23:06:00.254Z,42.84
2019-01-20T23:08:32.458Z,42.89
2019-01-20T23:11:04.592Z,42.92
2019-01-20T23:13:36.512Z,42.74
2019-01-20T23:16:10.260Z,42.72
2019-01-20T23:18:42.079Z,43.34
2019-01-20T23:21:13.528Z,42.38
2019-01-20T23:23:47.625Z,42.48
2019-01-20T23:26:19.298Z,43.26
2019-01-20T23:28:50.395Z,43.13
2019-01-20T23:31:25.578Z,42.96
2019-01-20T23:33:57.631Z,42.62
2019-01-20T23:36:30.412Z,43.28
2019-01-20T23:39:03.099Z,43.67
2019-01-20T23:41:35.157Z,43.12
2019-01-20T23:44:08.490Z,43.96
2019-01-20T23:46:41.849Z,43.86
2019-01-20T23:49:14.555Z,43.74
2019-01-20T23:51:47.636Z,43.35
2019-01-20T23:54:20.115Z,43.09
2019-01-20T23:56:52.949Z,43.39
2019-01-20T23:59:25.566Z,43.98
